SAVY/PMY METAR and TAF weather

Enter ICAO airport designator
Station Type Date Time Source
SAVY METAR 2020/07/26 15:22 UTC NOAA

SAVY 261522Z 16005KT 6000-RA SCT015 OVC045 05/04 Q1008


Station Type Date Time Source
SAVY Decoded METAR 2020/07/26 15:22 UTC NOAA

Puerto Madryn, CHT, Argentina (SAVY) 42-45-33S 065-06-10W
Jul 26, 2020 - 11:22 AM EDT / 2020.07.26 1522 UTC
Wind: from the SSE (160 degrees) at 6 MPH (5 KT):0
Sky conditions: overcast
Temperature: 41 F (5 C)
Dew Point: 39 F (4 C)
Relative Humidity: 93%
Pressure (altimeter): 29.77 in. Hg (1008 hPa)
ob: SAVY 261522Z 16005KT 6000-RA SCT015 OVC045 05/04 Q1008
cycle: 15

Station Type Date Time Source
SAVY TAF UTC NOAA

Error!

Example: see airport list